x

Smith Island, Wa (sisw1) Weather Station

6:00 - Thu 25th Dec 2014 All times are PST. -8 hours from GMT.

  • Wind
    9mph, 10mph gusts
  • Ar Temp 45°f
  • Sea Pressure 1023.7mb
  • Smith Island, Wa
  • Smith Island, Wa

More Historic Weather Station data

Upgrade to MSW Pro to gain access to the past 30 days of data for over 8000 Wavebouys and Weather Stations around the globe.

Join Pro

Comparision Forecast

View Surf forecast
   
Qui 12/25 6:00 9 10 mph 1023.7mb 45f
5:00 3
mph
1023.5mb 46f
4:00 5 7 mph 1023.6mb 46f
3:00 3
mph
1023.2mb 48f
2:00 8 9 mph 1022.6mb 47f
1:00 13 14 mph 1022.5mb 47f
12:00 13 15 mph 1022.3mb 46f
11:00 14 15 mph 1022.5mb 46f
10:00 15 16 mph 1022.2mb 44f
9:00 14 15 mph 1021.5mb 44f
8:00 5 7 mph 1020.8mb 45f
7:00 2 3 mph 1020.3mb 45f
6:00 8 10 mph 1019.9mb 46f
5:00  -  2 mph 1019.8mb 46f
4:00 7 8 mph 1019.3mb 46f
3:00  -  1 mph 1018.9mb 46f
2:00 7 8 mph 1018.3mb 46f
1:00 8 9 mph 1017.7mb 45f
12:00 6 8 mph 1017.2mb 45f
Qua 12/24 11:00 8
mph
1016.9mb 45f
10:00  -  1 mph 1016.6mb 45f
9:00 3
mph
1016.1mb 46f
8:00 11 14 mph 1015.4mb 47f
7:00 20 24 mph 1014.2mb 47f
6:00 21 24 mph 1013.7mb 47f
5:00 21 23 mph 1013.6mb 47f
4:00 18 23 mph 1013.3mb 47f
3:00 22 25 mph 1012.8mb 48f
2:00 22 26 mph 1012.5mb 48f
1:00 21 25 mph 1012mb 48f
12:00 18 21 mph 1011.8mb 47f
11:00 20 22 mph 1012.3mb 47f
10:00 21 23 mph 1012.3mb 46f
9:00 26 29 mph 1011.7mb 46f
8:00 16 21 mph 1011.6mb 47f
7:00 14 15 mph 1011.8mb 44f
6:00 11 14 mph 1012.2mb 44f
5:00 11 13 mph 1013.5mb 44f
4:00 13 15 mph 1014.1mb 44f
3:00 16 17 mph 1014.4mb 44f
2:00 20 21 mph 1015.2mb 44f
1:00 17 20 mph 1015.8mb 44f
12:00 25 28 mph 1016.5mb 45f
Ter 12/23 11:00 22 24 mph 1016.8mb 46f
10:00 17 21 mph 1017mb 47f
9:00 14
mph
1017.3mb 47f
8:00 11 13 mph 1017.9mb 47f
7:00 7 8 mph 1018.5mb 49f
6:00 8 13 mph 1019.2mb 49f
5:00 3 5 mph 1019.7mb 47f
4:00 7 8 mph 1019.6mb 47f
3:00 11 15 mph 1019.3mb 48f
2:00 14 18 mph 1019.8mb 47f
1:00 15 17 mph 1019.2mb 47f
12:00 18 20 mph 1019.2mb 49f
11:00 25 28 mph 1019.2mb 48f
10:00 32 34 mph 1019.8mb 47f
9:00 32 37 mph 1019.7mb 47f
8:00 28 33 mph 1020.2mb 48f
7:00 24 28 mph 1020.9mb 47f
6:00 23 25 mph 1021.5mb 47f
5:00 17 20 mph 1022.2mb 47f
4:00 14 16 mph 1023.4mb 46f
3:00 9 10 mph 1024.7mb 45f
2:00 16 17 mph 1025.3mb 46f
1:00 16 18 mph 1025.3mb 46f
12:00 15 16 mph 1026.4mb 46f
Seg 12/22 11:00 15 17 mph 1026.7mb 46f
10:00 10 11 mph 1027.2mb 46f
9:00 8 9 mph 1027.7mb 46f
8:00 10 11 mph 1027.8mb 46f
7:00 8 9 mph 1027.7mb 47f
6:00 8 9 mph 1028.3mb 47f
5:00 8 9 mph 1028.3mb 47f
4:00 6 7 mph 1028.5mb 48f
3:00 6
mph
1028.7mb 49f
2:00 3 5 mph 1028.5mb 49f
1:00 8 9 mph 1028.3mb 49f
12:00 5
mph
1027.7mb 49f
11:00 9 10 mph 1027.8mb 49f
10:00 16 18 mph 1027.5mb 48f
9:00 20 23 mph 1026.4mb 48f
8:00 17 20 mph 1025.7mb 48f
7:00 17 20 mph 1025mb 48f
6:00 22 25 mph 1023.9mb 48f
5:00 21 23 mph 1023mb 48f
4:00 26 30 mph 1022.3mb 49f